• Join FlightAware (Why Join?)
  • Login
  • US Flag 
05:51AM EDT


 

Airport Tracker/Info


-or-


 

Live Flight TrackerFlight Track Log ✈ TRS1260 ✈ 13-May-2012 ✈ KBWI - KMIA

Flight Track Log - Related Links

Times and Time Zones

All times are in EDT time to prevent confusion due to time zone crossing. See the TRS1260 flight status page for this flight to view local times or setup timezone preferences in your user account.

Time Position Orientation Groundspeed Altitude Reporting Facility
EDT Latitude Longitude Course Direction KTS MPH feet Rate Location/Type
10:38AM 39.1667 -76.7167 165° South 191 220 1,500  Level Potomac TRACON
10:39AM 39.1167 -76.7000 136° Southeast 262 302 3,200 2,040 Climbing Potomac TRACON
10:42AM 38.9847 -76.5342 146° Southeast 279 321 8,700 1,920 Climbing Washington Center
10:43AM 38.9247 -76.4828 204° Southwest 291 335 10,100 1,620 Climbing Washington Center
10:44AM 38.8242 -76.5403 210° Southwest 267 307 12,100 1,860 Climbing Washington Center
10:45AM 38.7403 -76.6031 208° Southwest 299 344 13,900 1,800 Climbing Washington Center
10:46AM 38.6522 -76.6631 204° Southwest 329 379 15,700 1,920 Climbing Washington Center
10:47AM 38.5558 -76.7172 177° South 356 410 17,800 1,800 Climbing Washington Center
10:48AM 38.4494 -76.7106 174° South 365 420 19,400 1,620 Climbing Washington Center
10:49AM 38.3369 -76.6956 174° South 384 442 21,100 1,620 Climbing Washington Center
10:50AM 38.2308 -76.6808 174° South 413 475 22,700 1,620 Climbing Washington Center
10:51AM 38.1142 -76.6658 174° South 424 488 24,400 1,560 Climbing Washington Center
10:52AM 37.9956 -76.6511 173° South 424 488 25,900 3,780 Climbing Washington Center
10:53AM 37.8767 -76.6336 173° South 424 488 32,000 1,380 Climbing Washington Center
10:54AM 37.7558 -76.6161 174° South 424 488 28,800 -960 Descending Washington Center
10:55AM 37.6350 -76.6014 174° South 429 494 30,100 1,320 Climbing Washington Center
10:56AM 37.5122 -76.5842 174° South 434 499 31,500 900 Climbing Washington Center
10:57AM 37.3914 -76.5694 175° South 439 505 32,000 240 Climbing Washington Center
10:58AM 37.2661 -76.5547 174° South 444 511 32,000  Level Washington Center
10:59AM 37.1411 -76.5375 176° South 449 517 32,000  Level Washington Center
11:00AM 37.0183 -76.5258 174° South 449 517 32,000  Level Washington Center
11:01AM 36.8931 -76.5086 182° South 449 517 32,000  Level Washington Center
11:02AM 36.7722 -76.5150 199° South 443 510 32,000 -60 Level Washington Center
11:03AM 36.6467 -76.5678 200° South 424 488 31,900  Descending Washington Center
11:04AM 36.5356 -76.6183 199° South 429 494 32,000  Climbing Washington Center
11:05AM 36.4244 -76.6658 199° South 436 502 32,000 -60 Level Washington Center
11:06AM 36.3094 -76.7158 199° South 436 502 31,900  Descending Washington Center
11:07AM 36.1961 -76.7631 199° South 436 502 32,000  Climbing Washington Center
11:08AM 36.0936 -76.8078 200° South 436 502 32,000  Level Washington Center
11:09AM 35.9803 -76.8600 199° South 436 502 32,000  Level Washington Center
11:10AM 35.8650 -76.9094 199° South 436 502 32,000  Level Washington Center
11:11AM 35.7561 -76.9561 197° South 431 496 32,000  Level Washington Center
11:12AM 35.6386 -77.0003 201° Southwest 431 496 32,000  Level Washington Center
11:13AM 35.5211 -77.0544 198° South 431 496 32,000  Level Washington Center
11:14AM 35.4058 -77.1006 199° South 431 496 32,000  Level Washington Center
11:15AM 35.2947 -77.1469 200° South 426 490 32,000  Level Washington Center
11:16AM 35.1814 -77.1981 198° South 426 490 32,000  Level Washington Center
11:17AM 35.0681 -77.2442 198° South 431 496 32,000  Level Washington Center
11:18AM 34.9547 -77.2900 200° South 430 495 32,000  Level Washington Center
11:19AM 34.8561 -77.3333 200° South 430 495 32,000  Level Washington Center
11:20AM 34.7322 -77.3889 199° South 430 495 32,000  Level Washington Center
11:21AM 34.6167 -77.4369 195° South 435 501 32,000  Level Washington Center
11:22AM 34.5014 -77.4744 195° South 435 501 32,000  Level Washington Center
11:23AM 34.3839 -77.5122 196° South 435 501 32,000  Level Washington Center
11:24AM 34.2789 -77.5475 195° South 440 506 32,000  Level Washington Center
11:25AM 34.1594 -77.5872 193° South 435 501 32,000  Level Washington Center
11:25AM 34.0517 -77.6169 195° South 438 504 32,000  Level Jacksonville Center
11:26AM 33.9364 -77.6539 194° South 434 499 32,000  Level Jacksonville Center
11:27AM 33.8167 -77.6886 195° South 442 509 32,000  Level Jacksonville Center
11:28AM 33.7097 -77.7222 197° South 448 516 32,000  Level Jacksonville Center
11:29AM 33.5903 -77.7667 194° South 448 516 32,000  Level Jacksonville Center
11:30AM 33.4708 -77.8033 197° South 448 516 32,000  Level Jacksonville Center
11:31AM 33.3556 -77.8447 195° South 448 516 32,000  Level Jacksonville Center
11:32AM 33.2381 -77.8814 194° South 448 516 32,000 -60 Level Jacksonville Center
11:33AM 33.1206 -77.9153 196° South 448 516 31,900  Descending Jacksonville Center
11:34AM 33.0053 -77.9539 194° South 448 516 32,000  Climbing Jacksonville Center
11:35AM 32.8878 -77.9900 195° South 442 509 32,000  Level Jacksonville Center
11:36AM 32.7703 -78.0283 194° South 442 509 32,000  Level Jacksonville Center
11:37AM 32.6525 -78.0619 194° South 437 503 32,000  Level Jacksonville Center
11:38AM 32.5350 -78.0978 196° South 437 503 32,000  Level Jacksonville Center
11:39AM 32.4175 -78.1383 192° South 437 503 32,000  Level Jacksonville Center
11:40AM 32.3017 -78.1664 198° South 432 497 32,000  Level Jacksonville Center
11:41AM 32.1844 -78.2117 194° South 432 497 32,000  Level Jacksonville Center
11:42AM 32.0583 -78.2475 195° South 432 497 32,000  Level Jacksonville Center
11:43AM 31.9386 -78.2856 194° South 432 497 32,000  Level Jacksonville Center
11:44AM 31.8189 -78.3208 195° South 437 503 32,000  Level Jacksonville Center
11:45AM 31.6992 -78.3583 196° South 458 527 32,000  Level Jacksonville Center
11:46AM 31.5775 -78.3986 196° South 448 516 32,000  Level Jacksonville Center
11:47AM 31.4578 -78.4383 194° South 444 511 32,000  Level Jacksonville Center
11:48AM 31.3400 -78.4731 196° South 444 511 32,000  Level Jacksonville Center
11:49AM 31.2183 -78.5131 194° South 456 525 32,000 -60 Level Jacksonville Center
11:50AM 31.1025 -78.5475 194° South 436 502 31,900  Descending Jacksonville Center
11:51AM 30.9683 -78.5875 195° South 450 518 32,000  Climbing Jacksonville Center
11:52AM 30.8483 -78.6244 195° South 449 517 32,000  Level Jacksonville Center
11:53AM 30.7306 -78.6611 193° South 453 521 32,000  Level Jacksonville Center
11:55AM 30.5519 -78.7100 189° South 462 532 32,000 -60 Level Miami Center
11:56AM 30.4244 -78.7342 188° South 456 525 31,900  Descending Miami Center
11:57AM 30.2992 -78.7536 188° South 451 519 32,000  Climbing Miami Center
11:58AM 30.1717 -78.7753 189° South 452 520 32,000  Level Miami Center
11:59AM 30.0544 -78.7972 187° South 452 520 32,000  Level Miami Center
12:00PM 29.9481 -78.8119 191° South 441 507 32,000  Level Miami Center
12:01PM 29.8267 -78.8383 189° South 450 518 32,000  Level Miami Center
12:02PM 29.7056 -78.8603 186° South 450 518 32,000  Level Miami Center
12:03PM 29.5781 -78.8769 185° South 456 525 32,000  Level Miami Center
12:04PM 29.4486 -78.8889 186° South 456 525 32,000  Level Miami Center
12:05PM 29.3189 -78.9056 187° South 462 532 32,000  Level Miami Center
12:06PM 29.1936 -78.9222 188° South 462 532 32,000  Level Miami Center
12:07PM 29.0703 -78.9411 187° South 460 529 32,000  Level Miami Center
12:08PM 28.9428 -78.9578 187° South 460 529 32,000  Level Miami Center
12:09PM 28.8153 -78.9744 187° South 465 535 32,000  Level Miami Center
12:10PM 28.6917 -78.9908 186° South 465 535 32,000  Level Miami Center
12:11PM 28.5664 -79.0050 188° South 465 535 32,000  Level Miami Center
12:12PM 28.4408 -79.0239 188° South 465 535 32,000  Level Miami Center
12:13PM 28.3133 -79.0450 195° South 465 535 32,000  Level Miami Center
12:14PM 28.1917 -79.0828 195° South 465 535 32,000  Level Miami Center
12:15PM 28.0658 -79.1203 195° South 465 535 32,000  Level Miami Center
12:16PM 27.9442 -79.1578 195° South 465 535 32,000  Level Miami Center
12:17PM 27.8244 -79.1953 195° South 456 525 32,000  Level Miami Center
12:18PM 27.6900 -79.2372 195° South 464 534 32,000  Level Miami Center
12:19PM 27.5664 -79.2744 194° South 458 527 32,000 -900 Level Miami Center
12:20PM 27.4425 -79.3092 195° South 458 527 30,200 -2,160 Descending Miami Center
12:21PM 27.3292 -79.3442 195° South 463 533 27,800 -2,520 Descending Miami Center
12:22PM 27.2117 -79.3792 196° South 457 526 25,200 -2,040 Descending Miami Center
12:23PM 27.0856 -79.4206 196° South 436 502 23,700 -1,020 Descending Miami Center
12:24PM 26.9742 -79.4556 193° South 420 483 23,200 -540 Descending Miami Center
12:25PM 26.8694 -79.4836 195° South 403 464 22,700 -540 Descending Miami Center
12:26PM 26.7644 -79.5161 196° South 398 458 22,200 -660 Descending Miami Center
12:27PM 26.6614 -79.5486 206° Southwest 398 458 21,400 -1,560 Descending Miami Center
12:28PM 26.5642 -79.6022 215° Southwest 398 458 19,100 -2,280 Descending Miami Center
12:28PM 26.5219 -79.6358 240° Southwest 375 432 18,000 -2,040 Descending Miami Center
12:29PM 26.4958 -79.6864 237° Southwest 372 428 17,100 -1,500 Descending Miami Center
12:30PM 26.4419 -79.7781 237° Southwest 363 418 15,900 -1,200 Descending Miami Center
12:31PM 26.3878 -79.8694 225° Southwest 356 410 14,800 -1,080 Descending Miami Center
12:32PM 26.3236 -79.9419 221° Southwest 353 406 13,900 -1,020 Descending Miami Center
12:33PM 26.2511 -80.0117 196° South 351 404 12,900 -1,020 Descending Miami Center
12:34PM 26.1586 -80.0417 193° South 344 396 11,900 -1,080 Descending Miami Center
12:35PM 26.0639 -80.0669 196° South 337 388 10,700 -960 Descending Miami Center
12:36PM 25.9819 -80.0925 238° Southwest 308 354 10,000 -660 Descending Miami Center
12:37PM 25.9406 -80.1653 269° West 297 342 9,500 -600 Descending Miami Center
12:38PM 25.9386 -80.2578 267° West 282 325 8,800 -1,260 Descending Miami Center
12:39PM 25.9344 -80.3453 265° West 276 318 7,000 -2,160 Descending Miami Center
12:40PM 25.9283 -80.4192 216° Southwest 263 303 4,600 -2,100 Descending Miami Center
12:41PM 25.8794 -80.4592 124° Southeast 238 274 3,000 -1,320 Descending Miami Center
12:42PM 25.8472 -80.4053 119° Southeast 210 242 2,000 -960 Descending Miami Center
12:43PM 25.8214 -80.3536 119° Southeast 188 216 1,100 -900 Descending Miami Center
12:44PM 25.8014 -80.3139 268° West 135 155 200 -840 Descending Miami Center
12:51PM 25.7769 -81.1560 268° West  Level FlightAware Approximate